createdAt,value
2022-10-04T00:01:45.791Z,77.17
2022-10-04T00:04:24.994Z,76.79
2022-10-04T00:06:54.637Z,77.13
2022-10-04T00:09:23.732Z,77.26
2022-10-04T00:11:54.410Z,76.70
2022-10-04T00:14:25.763Z,76.41
2022-10-04T00:16:53.526Z,71.06
2022-10-04T00:19:19.959Z,74.24
2022-10-04T00:21:58.216Z,78.89
2022-10-04T00:24:33.728Z,68.52
2022-10-04T00:27:24.069Z,84.24
2022-10-04T00:30:02.491Z,79.88
2022-10-04T00:32:59.770Z,75.96
2022-10-04T00:35:26.162Z,81.24
2022-10-04T00:38:09.127Z,78.52
2022-10-04T00:40:42.208Z,77.58
2022-10-04T00:43:24.110Z,76.82
2022-10-04T00:46:07.145Z,76.66
2022-10-04T00:48:52.217Z,76.64
2022-10-04T00:51:52.272Z,69.29
2022-10-04T00:54:23.996Z,77.82
2022-10-04T00:56:56.015Z,77.26
2022-10-04T00:59:33.651Z,77.07
2022-10-04T01:02:08.207Z,77.13
2022-10-04T01:04:56.569Z,76.83
2022-10-04T01:07:30.258Z,77.20
2022-10-04T01:10:02.239Z,76.62
2022-10-04T01:12:42.819Z,76.76
2022-10-04T01:15:30.888Z,76.25
2022-10-04T01:18:12.109Z,76.92
2022-10-04T01:20:49.831Z,76.91
2022-10-04T01:23:31.335Z,76.49
2022-10-04T01:25:58.965Z,76.51
2022-10-04T01:28:26.923Z,76.25
2022-10-04T01:30:54.357Z,76.05
2022-10-04T01:33:20.958Z,76.42
2022-10-04T01:35:48.177Z,76.95
2022-10-04T01:38:14.834Z,76.80
2022-10-04T01:40:53.972Z,76.30
2022-10-04T01:43:29.686Z,72.22
2022-10-04T01:46:06.650Z,76.48
2022-10-04T01:48:37.690Z,76.97
2022-10-04T01:51:16.463Z,76.80
2022-10-04T01:53:54.148Z,76.70
2022-10-04T01:56:25.882Z,76.71
2022-10-04T01:58:59.032Z,77.00
2022-10-04T02:01:55.619Z,77.00
2022-10-04T02:04:28.485Z,76.82
2022-10-04T02:06:57.090Z,76.47
2022-10-04T02:09:27.300Z,76.83
2022-10-04T02:11:54.728Z,77.01
2022-10-04T02:14:27.997Z,76.89
2022-10-04T02:16:54.785Z,76.63
2022-10-04T02:19:28.502Z,77.06
2022-10-04T02:21:56.058Z,76.98
2022-10-04T02:24:22.707Z,76.78
2022-10-04T02:26:51.064Z,76.76
2022-10-04T02:29:19.494Z,76.72
2022-10-04T02:32:07.182Z,77.08
2022-10-04T02:34:34.203Z,76.84
2022-10-04T02:37:04.041Z,77.23
2022-10-04T02:39:50.056Z,76.31
2022-10-04T02:42:28.274Z,77.24
2022-10-04T02:45:10.051Z,77.01
2022-10-04T02:47:54.901Z,76.65
2022-10-04T02:50:30.270Z,76.61
2022-10-04T02:53:09.774Z,76.94
2022-10-04T02:55:36.275Z,77.00
2022-10-04T02:58:10.862Z,77.24
2022-10-04T03:00:48.453Z,74.01
2022-10-04T03:03:35.083Z,76.78
2022-10-04T03:06:03.893Z,76.81
2022-10-04T03:08:44.220Z,77.03
2022-10-04T03:11:14.025Z,76.94
2022-10-04T03:13:44.549Z,77.11
2022-10-04T03:16:11.252Z,76.52
2022-10-04T03:18:38.072Z,77.11
2022-10-04T03:21:11.183Z,76.18
2022-10-04T03:23:39.371Z,76.08
2022-10-04T03:26:26.896Z,70.60
2022-10-04T03:28:53.610Z,82.42
2022-10-04T03:31:20.370Z,84.24
2022-10-04T03:33:47.651Z,79.38
2022-10-04T03:36:18.132Z,77.32
2022-10-04T03:38:47.175Z,78.99
2022-10-04T03:41:14.899Z,85.71
2022-10-04T03:43:47.184Z,85.15
2022-10-04T03:46:14.693Z,79.14
2022-10-04T03:48:45.924Z,81.22
2022-10-04T03:51:27.096Z,79.32
2022-10-04T03:53:57.344Z,75.51
2022-10-04T03:56:33.511Z,84.02
2022-10-04T03:59:04.341Z,80.09
2022-10-04T04:01:39.051Z,78.27
2022-10-04T04:04:36.835Z,77.49
2022-10-04T04:07:16.351Z,77.80
2022-10-04T04:09:52.458Z,77.74
2022-10-04T04:12:27.113Z,77.97
2022-10-04T04:14:54.284Z,77.68
2022-10-04T04:17:47.721Z,76.50
2022-10-04T04:20:28.943Z,77.62
2022-10-04T04:23:22.737Z,78.01
2022-10-04T04:25:54.719Z,76.31
2022-10-04T04:28:21.365Z,74.30
2022-10-04T04:30:50.701Z,75.57
2022-10-04T04:33:44.940Z,80.06
2022-10-04T04:36:14.219Z,73.57
2022-10-04T04:39:00.608Z,79.68
2022-10-04T04:41:31.379Z,78.43
2022-10-04T04:43:58.389Z,84.08
2022-10-04T04:46:27.942Z,75.30
2022-10-04T04:49:02.622Z,78.97
2022-10-04T04:51:31.515Z,78.32
2022-10-04T04:54:02.308Z,77.95
2022-10-04T04:56:30.016Z,77.32
2022-10-04T04:58:59.657Z,77.34
2022-10-04T05:01:29.117Z,77.77
2022-10-04T05:04:12.771Z,76.79
2022-10-04T05:06:42.003Z,77.40
2022-10-04T05:09:35.934Z,77.35
2022-10-04T05:12:10.451Z,77.43
2022-10-04T05:14:45.152Z,77.45
2022-10-04T05:17:25.037Z,77.02
2022-10-04T05:19:56.100Z,78.08
2022-10-04T05:22:25.400Z,77.02
2022-10-04T05:24:56.452Z,77.11
2022-10-04T05:27:30.504Z,76.36
2022-10-04T05:30:21.849Z,74.72
2022-10-04T05:33:10.697Z,76.90
2022-10-04T05:35:54.174Z,77.30
2022-10-04T05:38:27.783Z,77.31
2022-10-04T05:41:20.879Z,76.74
2022-10-04T05:43:52.520Z,77.58
2022-10-04T05:46:29.145Z,77.10
2022-10-04T05:49:00.733Z,77.66
2022-10-04T05:51:37.673Z,77.57
2022-10-04T05:54:05.123Z,77.71
2022-10-04T05:57:16.877Z,77.37
2022-10-04T06:00:11.177Z,75.56
2022-10-04T06:03:16.041Z,78.67
2022-10-04T06:05:59.355Z,78.35
2022-10-04T06:09:04.748Z,77.83
2022-10-04T06:12:01.173Z,73.23
2022-10-04T06:14:46.258Z,79.96
2022-10-04T06:17:38.291Z,86.82
2022-10-04T06:20:19.854Z,82.69
2022-10-04T06:22:48.125Z,79.61
2022-10-04T06:25:26.430Z,78.14
2022-10-04T06:28:15.911Z,74.18
2022-10-04T06:30:59.003Z,78.68
2022-10-04T06:33:37.675Z,77.61
2022-10-04T06:36:28.791Z,72.37
2022-10-04T06:39:04.273Z,78.27
2022-10-04T06:42:08.771Z,77.40
2022-10-04T06:45:05.245Z,82.45
2022-10-04T06:48:02.944Z,79.21
2022-10-04T06:51:00.478Z,80.83
2022-10-04T06:53:36.025Z,79.10
2022-10-04T06:56:35.272Z,85.40
2022-10-04T06:59:28.223Z,85.32
2022-10-04T07:02:07.095Z,88.05
2022-10-04T07:05:09.336Z,88.64
2022-10-04T07:07:44.914Z,84.98
2022-10-04T07:10:31.028Z,84.50
2022-10-04T07:13:03.442Z,87.61
2022-10-04T07:15:54.412Z,84.53
2022-10-04T07:18:27.766Z,80.47
2022-10-04T07:21:04.630Z,79.92
2022-10-04T07:23:43.953Z,78.68
2022-10-04T07:26:39.153Z,79.20
2022-10-04T07:29:22.756Z,79.21
2022-10-04T07:32:03.037Z,78.99
2022-10-04T07:34:31.520Z,81.07
2022-10-04T07:37:03.149Z,81.54
2022-10-04T07:39:32.247Z,80.55
2022-10-04T07:42:13.604Z,82.79
2022-10-04T07:44:48.480Z,83.11
2022-10-04T07:47:25.739Z,80.41
2022-10-04T07:49:53.969Z,80.47
2022-10-04T07:52:50.778Z,83.32
2022-10-04T07:55:26.099Z,84.63
2022-10-04T07:58:19.775Z,85.23
2022-10-04T08:00:52.591Z,86.28
2022-10-04T08:03:39.256Z,84.71
2022-10-04T08:06:23.322Z,84.47
2022-10-04T08:09:13.744Z,80.79
2022-10-04T08:11:46.293Z,84.01
2022-10-04T08:14:28.276Z,84.70
2022-10-04T08:17:01.635Z,86.97
2022-10-04T08:19:43.085Z,83.31
2022-10-04T08:22:26.372Z,83.31
2022-10-04T08:24:58.825Z,85.31
2022-10-04T08:28:10.250Z,84.06
2022-10-04T08:30:58.380Z,84.25
2022-10-04T08:33:37.029Z,86.91
2022-10-04T08:36:25.263Z,84.10
2022-10-04T08:38:58.555Z,82.09
2022-10-04T08:41:53.984Z,80.42
2022-10-04T08:44:39.292Z,79.60
2022-10-04T08:47:32.102Z,83.28
2022-10-04T08:50:30.227Z,81.72
2022-10-04T08:53:24.904Z,80.77
2022-10-04T08:56:00.715Z,83.39
2022-10-04T08:59:00.351Z,83.86
2022-10-04T09:01:44.813Z,83.46
2022-10-04T09:04:36.294Z,86.11
2022-10-04T09:07:35.048Z,84.15
2022-10-04T09:10:32.983Z,85.40
2022-10-04T09:13:30.934Z,87.71
2022-10-04T09:16:06.185Z,85.39
2022-10-04T09:19:01.607Z,85.26
2022-10-04T09:21:54.160Z,84.26
2022-10-04T09:24:55.671Z,84.14
2022-10-04T09:27:54.262Z,83.36
2022-10-04T09:30:56.272Z,85.66
2022-10-04T09:33:58.972Z,85.91
2022-10-04T09:36:41.329Z,83.34
2022-10-04T09:39:30.275Z,80.24
2022-10-04T09:42:30.988Z,80.29
2022-10-04T09:45:31.021Z,80.58
2022-10-04T09:48:25.012Z,80.04
2022-10-04T09:51:29.460Z,80.20
2022-10-04T09:54:04.804Z,85.48
2022-10-04T09:57:01.236Z,80.18
2022-10-04T10:00:18.484Z,82.40
2022-10-04T10:03:15.634Z,83.87
2022-10-04T10:06:07.555Z,83.20
2022-10-04T10:08:56.413Z,83.84
2022-10-04T10:11:50.639Z,81.17
2022-10-04T10:14:56.076Z,80.30
2022-10-04T10:17:47.784Z,83.32
2022-10-04T10:20:27.077Z,80.26
2022-10-04T10:23:20.619Z,78.69
2022-10-04T10:26:27.467Z,78.68
2022-10-04T10:29:31.559Z,77.59
2022-10-04T10:32:22.798Z,75.59
2022-10-04T10:35:27.103Z,77.36
2022-10-04T10:38:18.511Z,78.63
2022-10-04T10:40:45.366Z,77.69
2022-10-04T10:43:18.331Z,74.33
2022-10-04T10:46:07.017Z,80.17
2022-10-04T10:48:59.995Z,80.78
2022-10-04T10:51:49.151Z,81.08
2022-10-04T10:54:43.463Z,81.75
2022-10-04T10:57:37.675Z,80.83
2022-10-04T11:00:19.627Z,81.00
2022-10-04T11:03:23.971Z,80.44
2022-10-04T11:06:15.589Z,80.40
2022-10-04T11:09:06.727Z,80.85
2022-10-04T11:12:00.706Z,80.20
2022-10-04T11:14:50.521Z,80.59
2022-10-04T11:17:38.037Z,80.01
2022-10-04T11:20:44.213Z,80.49
2022-10-04T11:23:37.157Z,79.38
2022-10-04T11:26:18.110Z,79.10
2022-10-04T11:29:11.681Z,78.53
2022-10-04T11:32:18.062Z,73.99
2022-10-04T11:35:22.313Z,73.05
2022-10-04T11:38:07.400Z,76.36
2022-10-04T11:41:01.748Z,76.50
2022-10-04T11:43:56.001Z,74.80
2022-10-04T11:46:54.876Z,74.93
2022-10-04T11:49:44.696Z,72.81
2022-10-04T11:52:49.496Z,72.53
2022-10-04T11:55:47.013Z,70.79
2022-10-04T11:58:35.216Z,73.17
2022-10-04T12:01:01.609Z,72.04
2022-10-04T12:04:04.905Z,73.72
2022-10-04T12:06:53.332Z,75.77
2022-10-04T12:09:27.289Z,75.91
2022-10-04T12:12:38.240Z,74.01
2022-10-04T12:15:23.270Z,72.55
2022-10-04T12:18:08.620Z,69.70
2022-10-04T12:21:02.878Z,71.10
2022-10-04T12:23:29.592Z,70.84
2022-10-04T12:26:23.761Z,72.60
2022-10-04T12:29:14.825Z,71.20
2022-10-04T12:31:53.265Z,68.81
2022-10-04T12:34:37.068Z,70.21
2022-10-04T12:37:18.011Z,71.69
2022-10-04T12:40:07.527Z,73.13
2022-10-04T12:42:44.292Z,69.87
2022-10-04T12:45:32.436Z,70.93
2022-10-04T12:48:20.763Z,72.63
2022-10-04T12:50:52.143Z,72.50
2022-10-04T12:53:32.060Z,74.53
2022-10-04T12:56:04.296Z,73.84
2022-10-04T12:58:57.239Z,71.75
2022-10-04T13:01:35.871Z,69.98
2022-10-04T13:04:33.164Z,74.05
2022-10-04T13:07:22.797Z,72.94
2022-10-04T13:10:19.190Z,67.66
2022-10-04T13:12:45.817Z,67.90
2022-10-04T13:17:22.290Z,64.92
2022-10-04T13:18:21.994Z,65.90
2022-10-04T13:20:59.960Z,64.52
2022-10-04T13:23:40.556Z,67.55
2022-10-04T13:26:25.262Z,67.25
2022-10-04T13:29:02.812Z,68.30
2022-10-04T13:31:39.115Z,68.53
2022-10-04T13:34:09.333Z,71.27
2022-10-04T13:37:23.997Z,68.56
2022-10-04T13:40:23.530Z,68.99
2022-10-04T13:43:08.003Z,72.81
2022-10-04T13:45:58.940Z,76.47
2022-10-04T13:48:44.124Z,76.68
2022-10-04T13:51:43.587Z,77.59
2022-10-04T13:54:40.809Z,77.16
2022-10-04T13:57:50.202Z,77.65
2022-10-04T14:00:44.937Z,78.21
2022-10-04T14:03:42.357Z,78.17
2022-10-04T14:06:45.714Z,78.49
2022-10-04T14:09:30.945Z,78.31
2022-10-04T14:12:07.455Z,78.16
2022-10-04T14:14:55.224Z,76.81
2022-10-04T14:17:33.756Z,78.17
2022-10-04T14:20:30.930Z,78.86
2022-10-04T14:23:33.658Z,78.50
2022-10-04T14:26:19.304Z,77.96
2022-10-04T14:29:10.040Z,78.56
2022-10-04T14:31:57.568Z,78.65
2022-10-04T14:34:39.975Z,78.89
2022-10-04T14:37:37.530Z,79.26
2022-10-04T14:40:35.816Z,79.59
2022-10-04T14:43:15.487Z,79.31
2022-10-04T14:46:01.009Z,79.60
2022-10-04T14:49:04.640Z,79.63
2022-10-04T14:51:44.369Z,79.28
2022-10-04T14:54:25.481Z,79.94
2022-10-04T14:57:03.961Z,79.37
2022-10-04T14:59:53.828Z,79.74
2022-10-04T15:02:40.358Z,79.84
2022-10-04T15:05:31.675Z,79.85
2022-10-04T15:08:25.617Z,79.77
2022-10-04T15:11:06.203Z,79.70
2022-10-04T15:13:47.099Z,80.00
2022-10-04T15:16:32.480Z,79.77
2022-10-04T15:19:12.171Z,79.86
2022-10-04T15:21:41.359Z,80.12
2022-10-04T15:24:24.264Z,80.38
2022-10-04T15:27:38.495Z,80.20
2022-10-04T15:30:37.382Z,80.13
2022-10-04T15:33:28.753Z,80.03
2022-10-04T15:36:38.033Z,80.21
2022-10-04T15:39:39.278Z,79.71
2022-10-04T15:42:14.798Z,79.98
2022-10-04T15:45:02.704Z,80.03
2022-10-04T15:48:01.370Z,80.25
2022-10-04T15:50:52.826Z,79.98
2022-10-04T15:53:38.682Z,80.08
2022-10-04T15:56:12.531Z,79.93
2022-10-04T15:59:19.077Z,80.23
2022-10-04T16:02:09.595Z,79.85
2022-10-04T16:05:00.722Z,80.04
2022-10-04T16:07:28.025Z,79.94
2022-10-04T16:10:32.896Z,80.26
2022-10-04T16:13:17.483Z,80.18
2022-10-04T16:15:51.174Z,80.26
2022-10-04T16:18:41.887Z,80.14
2022-10-04T16:21:37.065Z,80.21
2022-10-04T16:24:21.570Z,80.60
2022-10-04T16:26:50.382Z,79.85
2022-10-04T16:29:40.820Z,80.35
2022-10-04T16:32:19.161Z,80.14
2022-10-04T16:34:57.235Z,80.10
2022-10-04T16:37:23.665Z,80.04
2022-10-04T16:40:05.912Z,80.06
2022-10-04T16:42:44.355Z,80.01
2022-10-04T16:45:11.762Z,79.94
2022-10-04T16:47:47.362Z,79.66
2022-10-04T16:50:34.418Z,79.76
2022-10-04T16:53:38.244Z,79.75
2022-10-04T16:56:16.312Z,79.80
2022-10-04T16:58:50.921Z,79.72
2022-10-04T17:01:23.689Z,79.62
2022-10-04T17:04:11.792Z,79.77
2022-10-04T17:06:59.495Z,79.53
2022-10-04T17:09:50.984Z,79.74
2022-10-04T17:12:50.469Z,79.81
2022-10-04T17:15:27.538Z,79.82
2022-10-04T17:18:09.097Z,79.63
2022-10-04T17:20:41.849Z,79.41
2022-10-04T17:23:34.380Z,79.15
2022-10-04T17:26:34.989Z,79.15
2022-10-04T17:29:28.696Z,79.66
2022-10-04T17:32:17.492Z,79.26
2022-10-04T17:35:03.119Z,79.01
2022-10-04T17:37:38.862Z,79.34
2022-10-04T17:40:11.752Z,77.60
2022-10-04T17:42:52.392Z,78.72
2022-10-04T17:45:40.830Z,78.59
2022-10-04T17:48:40.228Z,78.61
2022-10-04T17:51:58.007Z,78.27
2022-10-04T17:54:47.017Z,78.62
2022-10-04T17:57:41.692Z,78.31
2022-10-04T18:00:12.962Z,78.61
2022-10-04T18:03:09.485Z,78.48
2022-10-04T18:05:42.000Z,78.74
2022-10-04T18:08:40.317Z,78.64
2022-10-04T18:11:18.376Z,78.74
2022-10-04T18:13:54.456Z,78.37
2022-10-04T18:16:30.536Z,78.50
2022-10-04T18:19:02.136Z,78.65
2022-10-04T18:21:31.214Z,78.59
2022-10-04T18:24:03.552Z,78.76
2022-10-04T18:26:33.669Z,78.50
2022-10-04T18:29:02.484Z,71.22
2022-10-04T18:31:32.590Z,80.51
2022-10-04T18:34:11.464Z,79.13
2022-10-04T18:37:20.283Z,79.06
2022-10-04T18:39:53.218Z,78.79
2022-10-04T18:42:37.042Z,78.53
2022-10-04T18:45:23.655Z,78.90
2022-10-04T18:47:53.646Z,78.88
2022-10-04T18:50:20.219Z,78.88
2022-10-04T18:52:54.452Z,78.79
2022-10-04T18:55:37.879Z,78.54
2022-10-04T19:04:26.747Z,78.15
2022-10-04T19:06:59.494Z,73.91
2022-10-04T19:09:46.732Z,82.25
2022-10-04T19:12:24.339Z,76.07
2022-10-04T19:15:41.635Z,79.47
2022-10-04T19:18:33.777Z,78.68
2022-10-04T19:21:06.765Z,78.77
2022-10-04T19:24:07.836Z,78.83
2022-10-04T19:26:40.822Z,78.48
2022-10-04T19:29:10.487Z,78.46
2022-10-04T19:31:47.266Z,78.63
2022-10-04T19:34:20.695Z,78.65
2022-10-04T19:36:56.852Z,78.68
2022-10-04T19:39:32.664Z,78.32
2022-10-04T19:42:09.801Z,76.71
2022-10-04T19:45:06.294Z,78.51
2022-10-04T19:47:52.144Z,78.32
2022-10-04T19:50:51.069Z,78.23
2022-10-04T19:53:28.169Z,78.64
2022-10-04T19:55:55.935Z,78.81
2022-10-04T19:58:38.041Z,79.22
2022-10-04T20:01:12.780Z,78.41
2022-10-04T20:03:39.941Z,80.08
2022-10-04T20:06:08.515Z,78.63
2022-10-04T20:08:47.247Z,78.38
2022-10-04T20:11:27.795Z,78.40
2022-10-04T20:14:10.209Z,78.33
2022-10-04T20:16:49.689Z,78.45
2022-10-04T20:19:45.973Z,78.35
2022-10-04T20:22:12.356Z,78.13
2022-10-04T20:24:41.567Z,77.97
2022-10-04T20:27:23.296Z,77.95
2022-10-04T20:29:51.737Z,78.29
2022-10-04T20:32:27.172Z,78.08
2022-10-04T20:34:55.599Z,78.15
2022-10-04T20:37:42.175Z,78.24
2022-10-04T20:40:08.859Z,78.18
2022-10-04T20:42:38.769Z,78.04
2022-10-04T20:45:11.335Z,77.97
2022-10-04T20:47:54.757Z,77.86
2022-10-04T20:50:43.370Z,79.96
2022-10-04T20:53:17.788Z,78.29
2022-10-04T20:55:45.978Z,78.11
2022-10-04T20:58:32.076Z,77.99
2022-10-04T21:01:06.476Z,76.76
2022-10-04T21:03:33.036Z,77.82
2022-10-04T21:06:08.484Z,71.94
2022-10-04T21:08:36.129Z,78.18
2022-10-04T21:11:20.490Z,87.54
2022-10-04T21:13:58.904Z,81.00
2022-10-04T21:16:47.357Z,79.07
2022-10-04T21:19:32.464Z,78.53
2022-10-04T21:22:00.686Z,78.30
2022-10-04T21:24:37.616Z,78.21
2022-10-04T21:27:06.591Z,78.38
2022-10-04T21:29:32.984Z,78.30
2022-10-04T21:31:59.881Z,78.13
2022-10-04T21:34:48.651Z,78.41
2022-10-04T21:37:13.221Z,78.27
2022-10-04T21:39:39.683Z,77.54
2022-10-04T21:42:06.096Z,78.48
2022-10-04T21:44:32.684Z,77.66
2022-10-04T21:46:59.106Z,78.09
2022-10-04T21:49:25.765Z,73.46
2022-10-04T21:51:52.656Z,78.38
2022-10-04T21:54:19.111Z,70.77
2022-10-04T21:56:45.784Z,78.10
2022-10-04T21:59:12.328Z,77.60
2022-10-04T22:01:38.772Z,77.56
2022-10-04T22:04:05.155Z,77.59
2022-10-04T22:06:31.618Z,77.15
2022-10-04T22:08:58.139Z,77.42
2022-10-04T22:11:24.533Z,78.86
2022-10-04T22:13:51.176Z,78.56
2022-10-04T22:16:17.673Z,78.13
2022-10-04T22:18:44.121Z,77.86
2022-10-04T22:21:10.612Z,77.52
2022-10-04T22:23:40.004Z,77.17
2022-10-04T22:26:12.472Z,77.14
2022-10-04T22:28:43.975Z,78.82
2022-10-04T22:31:15.044Z,78.45
2022-10-04T22:33:43.405Z,78.03
2022-10-04T22:36:39.528Z,77.69
2022-10-04T22:39:08.749Z,79.07
2022-10-04T22:41:43.645Z,77.86
2022-10-04T22:44:17.814Z,77.39
2022-10-04T22:46:51.400Z,77.68
2022-10-04T22:49:23.774Z,77.74
2022-10-04T22:51:52.992Z,77.35
2022-10-04T22:54:21.979Z,66.23
2022-10-04T22:56:49.237Z,80.38
2022-10-04T22:59:19.359Z,84.47
2022-10-04T23:01:46.474Z,81.88
2022-10-04T23:04:24.321Z,82.24
2022-10-04T23:06:52.052Z,81.30
2022-10-04T23:09:19.448Z,78.79
2022-10-04T23:11:46.337Z,78.57
2022-10-04T23:14:12.996Z,78.37
2022-10-04T23:16:39.492Z,78.33
2022-10-04T23:19:08.586Z,77.24
2022-10-04T23:21:37.991Z,82.44
2022-10-04T23:24:16.553Z,69.15
2022-10-04T23:26:46.228Z,78.81
2022-10-04T23:29:30.098Z,68.11
2022-10-04T23:31:57.368Z,78.61
2022-10-04T23:34:34.540Z,68.30
2022-10-04T23:37:01.052Z,78.48
2022-10-04T23:39:33.771Z,78.08
2022-10-04T23:42:05.301Z,78.14
2022-10-04T23:44:37.120Z,77.85
2022-10-04T23:47:14.121Z,77.52
2022-10-04T23:49:40.747Z,77.61
2022-10-04T23:52:13.685Z,77.88
2022-10-04T23:54:40.092Z,67.71
2022-10-04T23:57:11.256Z,80.43
2022-10-04T23:59:38.913Z,77.81
